Decoded Metar for CYEK (ESKIMO POINT in NU, CANADA) (IATA:YEK) | Meteo·Mobile Aviation Weather
aviador You're here:

CYEK Decoded Metar

ESKIMO POINT in NU, CANADA
Report Time2018-09-20 02:00:00
UTC Time2018-09-20 02:25:00
Flight Rules vfr VFR
Wind240° at 06 kt
W.Decomp.*RWY 33: 0.4 kt HW 6 kt LCW
W.Rank240° ranks 36
Current wind is below 240° avg. (8.5)
Visibility9999 m
Phenomena:N/A
Clouds:Broken 060 Hf
Expected CloudBase > 1,600 ft AGL from Temp-Dew spread
Ceiling6,000 ft
Temp-2°C (ISA -17)
Dew Point-6°C (74% RH)
AAT-6.9°C
QNH1016 hPa
Density Alt-2,096 ft
Elevation33 ft
Report Wrong Elevation
Raw Report
CYEK 200200Z AUTO 24006KT 9SM BKN060 M02/M06 A2999 RMK SLP157=

Extra information for CYEK:More info

Metar Taf Metar & Taf Last 4 Metars F.Rules Stats Wind Profile Meteogram Temp Stats Airport Information Weather charts Add Link Nearby VenuesMetar ALERT Operation Metar Decoded Social comments